Time;durP1;ratioP1;P1;durP2;ratioP2;P2;SDS_P1;SDS_P2;PMS_P1;PMS_P2;Temp;Humidity;BMP_temperature;BMP_pressure;BME280_temperature;BME280_humidity;BME280_pressure;Samples;Min_cycle;Max_cycle;Signal;HPM_P1;HPM_P2
2023/12/07 00:02:12;;;;;;;17.93;12.50;;;;;;;;;;5045114;28;20651;-70
2023/12/07 00:04:39;;;;;;;15.93;13.03;;;;;;;;;;5037887;28;20227;-71
2023/12/07 00:07:06;;;;;;;16.07;11.97;;;;;;;;;;5041592;28;20221;-71
2023/12/07 00:09:34;;;;;;;17.47;11.57;;;;;;;;;;5045236;28;20627;-71
2023/12/07 00:12:01;;;;;;;15.77;11.00;;;;;;;;;;5043061;28;20640;-71
2023/12/07 00:14:28;;;;;;;15.60;10.80;;;;;;;;;;5040148;28;20257;-71
2023/12/07 00:16:57;;;;;;;15.40;11.20;;;;;;;;;;5057973;28;20270;-71
2023/12/07 00:19:24;;;;;;;14.03;10.83;;;;;;;;;;5049853;28;20230;-71
2023/12/07 00:21:51;;;;;;;16.10;11.43;;;;;;;;;;5032030;28;20234;-71
2023/12/07 00:24:19;;;;;;;13.07;10.77;;;;;;;;;;5044006;28;20230;-71
2023/12/07 00:26:46;;;;;;;13.77;9.93;;;;;;;;;;5043775;28;20207;-70
2023/12/07 00:29:13;;;;;;;12.00;9.50;;;;;;;;;;5044833;28;20681;-70
2023/12/07 00:31:41;;;;;;;12.10;9.93;;;;;;;;;;5043834;28;20257;-71
2023/12/07 00:34:09;;;;;;;14.03;10.40;;;;;;;;;;5057467;28;20261;-71
2023/12/07 00:36:38;;;;;;;12.33;9.73;;;;;;;;;;5040134;28;20293;-71
2023/12/07 00:39:06;;;;;;;13.40;10.37;;;;;;;;;;5041640;28;20312;-71
2023/12/07 00:41:34;;;;;;;13.53;9.53;;;;;;;;;;5044676;28;20298;-71
2023/12/07 00:44:01;;;;;;;13.53;10.17;;;;;;;;;;5041501;28;20697;-71
2023/12/07 00:46:29;;;;;;;10.80;9.20;;;;;;;;;;5040762;28;20249;-71
2023/12/07 00:48:56;;;;;;;12.87;9.53;;;;;;;;;;5040776;28;20218;-70
2023/12/07 00:51:23;;;;;;;12.60;9.77;;;;;;;;;;5042226;28;20202;-71
2023/12/07 00:53:51;;;;;;;14.57;10.93;;;;;;;;;;5046104;28;20640;-71
2023/12/07 00:56:18;;;;;;;13.57;10.70;;;;;;;;;;5044284;28;20297;-71
2023/12/07 00:58:45;;;;;;;12.97;9.83;;;;;;;;;;5042714;28;20222;-71
2023/12/07 01:01:13;;;;;;;13.77;10.67;;;;;;;;;;5041568;28;20692;-70
2023/12/07 01:03:40;;;;;;;15.67;11.00;;;;;;;;;;5040919;28;20690;-71
2023/12/07 01:06:09;;;;;;;22.40;13.63;;;;;;;;;;5029887;28;20607;-71
2023/12/07 01:08:37;;;;;;;22.03;14.30;;;;;;;;;;5041312;28;20223;-71
2023/12/07 01:11:05;;;;;;;22.27;14.47;;;;;;;;;;5045793;28;20221;-71
2023/12/07 01:13:33;;;;;;;14.57;11.00;;;;;;;;;;5025116;28;20210;-69
2023/12/07 01:16:00;;;;;;;17.37;12.67;;;;;;;;;;5046674;28;20206;-71
2023/12/07 01:18:28;;;;;;;24.83;16.47;;;;;;;;;;5051009;28;20246;-69
2023/12/07 01:20:55;;;;;;;22.47;15.27;;;;;;;;;;5049182;28;20236;-69
2023/12/07 01:23:23;;;;;;;14.90;11.13;;;;;;;;;;5050141;28;20225;-70
2023/12/07 01:25:50;;;;;;;14.27;10.23;;;;;;;;;;5047068;28;20214;-71
2023/12/07 01:28:18;;;;;;;12.63;9.60;;;;;;;;;;5021174;28;20225;-71
2023/12/07 01:30:45;;;;;;;13.13;11.20;;;;;;;;;;5038073;28;20659;-71
2023/12/07 01:33:12;;;;;;;14.67;10.90;;;;;;;;;;5035263;28;20658;-71
2023/12/07 01:35:40;;;;;;;12.23;10.10;;;;;;;;;;5043557;28;20716;-71
2023/12/07 01:38:07;;;;;;;13.20;9.40;;;;;;;;;;5043889;28;20226;-71
2023/12/07 01:40:34;;;;;;;14.80;11.27;;;;;;;;;;5040395;28;20209;-71
2023/12/07 01:43:02;;;;;;;15.90;11.20;;;;;;;;;;5040131;28;20684;-69
2023/12/07 01:45:29;;;;;;;16.47;11.53;;;;;;;;;;5027295;28;20222;-71
2023/12/07 01:47:58;;;;;;;17.83;11.70;;;;;;;;;;5037367;28;20221;-72
2023/12/07 01:50:26;;;;;;;17.47;12.80;;;;;;;;;;5030023;28;20206;-71
2023/12/07 01:52:56;;;;;;;23.33;11.30;;;;;;;;;;5040305;28;20206;-71
2023/12/07 01:55:24;;;;;;;14.50;9.90;;;;;;;;;;5039601;28;20190;-71
2023/12/07 01:57:51;;;;;;;12.23;10.00;;;;;;;;;;5036733;28;20198;-72
2023/12/07 02:00:19;;;;;;;13.13;10.50;;;;;;;;;;5035742;28;20566;-71
2023/12/07 02:02:47;;;;;;;15.20;9.63;;;;;;;;;;5041444;28;20215;-71
2023/12/07 02:05:15;;;;;;;14.10;10.70;;;;;;;;;;5023971;28;20230;-71
2023/12/07 02:07:43;;;;;;;18.67;9.80;;;;;;;;;;5036819;28;20667;-70
2023/12/07 02:10:16;;;;;;;12.03;8.37;;;;;;;;;;5039297;28;20679;-71
2023/12/07 02:12:43;;;;;;;11.30;8.90;;;;;;;;;;5044093;28;20234;-72
2023/12/07 02:15:11;;;;;;;50.50;9.23;;;;;;;;;;5038922;28;20657;-71
2023/12/07 02:17:42;;;;;;;14.80;7.73;;;;;;;;;;5046818;28;20592;-72
2023/12/07 02:20:16;;;;;;;10.47;8.00;;;;;;;;;;5038956;28;20688;-71
2023/12/07 02:22:48;;;;;;;12.47;9.23;;;;;;;;;;5039278;28;20646;-71
2023/12/07 02:25:18;;;;;;;11.33;8.97;;;;;;;;;;5040261;28;20222;-71
2023/12/07 02:27:46;;;;;;;11.90;8.80;;;;;;;;;;5042863;28;20399;-71
2023/12/07 02:30:14;;;;;;;11.57;8.97;;;;;;;;;;5044332;28;20248;-70
2023/12/07 02:32:43;;;;;;;12.47;9.70;;;;;;;;;;5039758;28;20199;-71
2023/12/07 02:35:14;;;;;;;58.90;22.93;;;;;;;;;;5041014;28;20198;-69
2023/12/07 02:37:51;;;;;;;13.23;9.90;;;;;;;;;;5034227;28;20202;-71
2023/12/07 02:40:20;;;;;;;10.63;8.33;;;;;;;;;;5032691;28;20213;-71
2023/12/07 02:42:48;;;;;;;14.53;9.73;;;;;;;;;;5037493;28;20619;-71
2023/12/07 02:45:15;;;;;;;13.67;9.33;;;;;;;;;;5028437;28;20240;-70
2023/12/07 02:47:45;;;;;;;15.97;10.30;;;;;;;;;;5033789;28;20274;-71
2023/12/07 02:50:13;;;;;;;12.03;8.77;;;;;;;;;;5036326;28;20476;-71
2023/12/07 02:52:41;;;;;;;15.40;10.00;;;;;;;;;;5019371;28;20666;-71
2023/12/07 02:55:09;;;;;;;15.17;9.67;;;;;;;;;;5033418;28;20780;-70
2023/12/07 02:57:36;;;;;;;15.57;10.13;;;;;;;;;;5032155;28;20253;-71
2023/12/07 03:00:08;;;;;;;10.37;8.30;;;;;;;;;;5034892;28;20213;-71
2023/12/07 03:02:36;;;;;;;14.83;8.67;;;;;;;;;;5036023;28;20266;-71
2023/12/07 03:05:03;;;;;;;14.93;9.73;;;;;;;;;;5045076;28;20217;-71
2023/12/07 03:07:31;;;;;;;23.37;13.53;;;;;;;;;;5034366;28;20269;-70
2023/12/07 03:09:58;;;;;;;19.73;10.97;;;;;;;;;;5040012;28;20694;-71
2023/12/07 03:12:26;;;;;;;11.63;8.37;;;;;;;;;;5040378;28;20217;-71
2023/12/07 03:14:53;;;;;;;9.30;6.80;;;;;;;;;;5035853;28;20217;-70
2023/12/07 03:17:21;;;;;;;9.17;7.20;;;;;;;;;;5036300;28;20216;-71
2023/12/07 03:19:48;;;;;;;11.13;7.80;;;;;;;;;;5035579;28;20655;-71
2023/12/07 03:22:15;;;;;;;9.30;7.13;;;;;;;;;;5041473;28;20661;-71
2023/12/07 03:24:47;;;;;;;8.67;6.80;;;;;;;;;;5033656;28;20253;-71
2023/12/07 03:27:15;;;;;;;9.20;7.33;;;;;;;;;;5029525;28;20206;-70
2023/12/07 03:29:42;;;;;;;8.53;6.80;;;;;;;;;;5038833;28;20226;-71
2023/12/07 03:32:10;;;;;;;10.73;6.77;;;;;;;;;;5037654;28;20290;-71
2023/12/07 03:34:37;;;;;;;9.03;6.50;;;;;;;;;;5038000;28;20229;-70
2023/12/07 03:37:04;;;;;;;8.93;6.87;;;;;;;;;;5036392;28;20215;-71
2023/12/07 03:39:32;;;;;;;8.33;6.30;;;;;;;;;;5023865;28;20318;-71
2023/12/07 03:42:01;;;;;;;15.40;9.17;;;;;;;;;;5034592;28;20205;-70
2023/12/07 03:44:28;;;;;;;12.10;7.73;;;;;;;;;;5022838;28;20497;-71
2023/12/07 03:46:55;;;;;;;12.37;8.90;;;;;;;;;;5040184;28;20206;-70
2023/12/07 03:49:22;;;;;;;11.47;7.93;;;;;;;;;;5032119;28;20725;-71
2023/12/07 03:51:50;;;;;;;9.33;7.40;;;;;;;;;;5037873;28;20198;-71
2023/12/07 03:54:17;;;;;;;10.17;7.87;;;;;;;;;;5039950;28;20678;-71
2023/12/07 03:56:44;;;;;;;16.40;10.07;;;;;;;;;;5043777;28;20208;-70
2023/12/07 03:59:11;;;;;;;12.10;8.20;;;;;;;;;;5038284;28;20641;-68
2023/12/07 04:01:39;;;;;;;15.33;9.13;;;;;;;;;;5030429;28;20661;-71
2023/12/07 04:04:06;;;;;;;11.47;7.80;;;;;;;;;;5037964;28;20236;-69
2023/12/07 04:06:33;;;;;;;15.10;9.03;;;;;;;;;;5046473;28;20211;-71
2023/12/07 04:09:01;;;;;;;18.47;10.37;;;;;;;;;;5050795;28;20229;-71
2023/12/07 04:11:28;;;;;;;12.67;8.30;;;;;;;;;;5041274;28;20209;-70
2023/12/07 04:13:55;;;;;;;8.33;6.87;;;;;;;;;;5041176;28;20525;-70
2023/12/07 04:16:22;;;;;;;9.23;7.50;;;;;;;;;;5038429;28;20688;-70
2023/12/07 04:18:50;;;;;;;9.70;7.30;;;;;;;;;;5033327;28;20609;-71
2023/12/07 04:21:17;;;;;;;9.17;7.10;;;;;;;;;;5042956;28;20232;-70
2023/12/07 04:23:44;;;;;;;9.63;7.10;;;;;;;;;;5038844;28;20657;-70
2023/12/07 04:26:12;;;;;;;8.47;7.50;;;;;;;;;;5038361;28;20213;-70
2023/12/07 04:28:39;;;;;;;10.20;7.07;;;;;;;;;;5038873;28;20240;-70
2023/12/07 04:31:06;;;;;;;11.27;6.63;;;;;;;;;;5025412;28;20197;-71
2023/12/07 04:33:33;;;;;;;7.77;5.93;;;;;;;;;;5039022;28;20217;-71
2023/12/07 04:36:04;;;;;;;10.20;7.53;;;;;;;;;;5040077;28;20225;-71
2023/12/07 04:38:32;;;;;;;10.53;7.63;;;;;;;;;;5043074;28;20745;-70
2023/12/07 04:40:59;;;;;;;10.63;8.17;;;;;;;;;;5023216;28;20693;-71
2023/12/07 04:43:26;;;;;;;11.70;8.53;;;;;;;;;;5027682;28;20618;-71
2023/12/07 04:45:54;;;;;;;11.40;8.73;;;;;;;;;;5044962;28;20225;-71
2023/12/07 04:48:21;;;;;;;10.30;7.80;;;;;;;;;;5036706;28;20225;-71
2023/12/07 04:50:48;;;;;;;13.23;9.03;;;;;;;;;;5030660;28;20204;-70
2023/12/07 04:53:15;;;;;;;10.43;7.93;;;;;;;;;;5039539;28;20210;-70
2023/12/07 04:55:47;;;;;;;11.83;8.10;;;;;;;;;;5052364;28;20210;-70
2023/12/07 04:58:15;;;;;;;12.93;8.80;;;;;;;;;;5041191;28;20229;-69
2023/12/07 05:00:43;;;;;;;15.83;11.50;;;;;;;;;;5041919;28;20271;-70
2023/12/07 05:03:10;;;;;;;15.83;11.50;;;;;;;;;;5044914;28;20205;-70
2023/12/07 05:05:37;;;;;;;13.97;10.70;;;;;;;;;;5038595;28;20321;-70
2023/12/07 05:08:05;;;;;;;13.87;10.27;;;;;;;;;;5035559;28;20247;-71
2023/12/07 05:10:32;;;;;;;13.70;10.17;;;;;;;;;;5023900;28;20205;-70
2023/12/07 05:12:59;;;;;;;14.50;9.93;;;;;;;;;;5026736;28;20224;-71
2023/12/07 05:15:27;;;;;;;11.97;8.80;;;;;;;;;;5031392;28;20636;-71
2023/12/07 05:17:54;;;;;;;9.70;6.93;;;;;;;;;;5031521;28;20267;-69
2023/12/07 05:20:24;;;;;;;7.60;5.97;;;;;;;;;;5036076;28;20262;-70
2023/12/07 05:22:51;;;;;;;5.67;4.93;;;;;;;;;;5041813;28;20748;-70
2023/12/07 05:25:18;;;;;;;5.80;4.60;;;;;;;;;;5035739;28;20224;-69
2023/12/07 05:27:46;;;;;;;18.87;12.63;;;;;;;;;;5021142;28;20205;-71
2023/12/07 05:30:15;;;;;;;8.43;7.03;;;;;;;;;;5036168;28;20655;-70
2023/12/07 05:32:42;;;;;;;6.13;5.07;;;;;;;;;;5040991;28;20705;-69
2023/12/07 05:35:10;;;;;;;5.70;5.10;;;;;;;;;;5037194;28;20202;-70
2023/12/07 05:37:38;;;;;;;11.07;4.60;;;;;;;;;;5039244;28;20217;-69
2023/12/07 05:40:06;;;;;;;4.53;4.13;;;;;;;;;;5039269;28;20206;-69
2023/12/07 05:42:33;;;;;;;5.80;4.33;;;;;;;;;;5033459;28;20203;-70
2023/12/07 05:45:01;;;;;;;6.30;5.57;;;;;;;;;;5035197;28;20221;-70
2023/12/07 05:47:28;;;;;;;14.47;5.60;;;;;;;;;;5032097;28;20222;-70
2023/12/07 05:49:58;;;;;;;5.40;4.53;;;;;;;;;;5038048;28;20225;-71
2023/12/07 05:52:25;;;;;;;6.00;5.13;;;;;;;;;;5021602;28;20217;-69
2023/12/07 05:54:52;;;;;;;9.37;6.43;;;;;;;;;;5036715;28;20238;-70
2023/12/07 05:57:20;;;;;;;8.93;6.30;;;;;;;;;;5039059;28;20723;-71
2023/12/07 05:59:47;;;;;;;9.50;6.53;;;;;;;;;;5038305;28;20238;-69
2023/12/07 06:02:14;;;;;;;26.03;14.73;;;;;;;;;;5032693;28;20206;-70
2023/12/07 06:04:42;;;;;;;14.23;7.90;;;;;;;;;;5032151;28;20223;-70
2023/12/07 06:07:11;;;;;;;9.63;5.80;;;;;;;;;;5034120;28;20199;-70
2023/12/07 06:09:39;;;;;;;5.50;4.83;;;;;;;;;;5037577;28;20684;-69
2023/12/07 06:12:07;;;;;;;5.90;5.10;;;;;;;;;;5033716;28;20205;-69
2023/12/07 06:14:34;;;;;;;6.83;4.73;;;;;;;;;;5043942;28;20202;-69
2023/12/07 06:17:03;;;;;;;7.00;5.30;;;;;;;;;;5036883;28;20210;-71
2023/12/07 06:19:32;;;;;;;6.57;4.83;;;;;;;;;;5035909;28;20276;-71
2023/12/07 06:21:59;;;;;;;3.20;2.90;;;;;;;;;;5028376;28;20253;-69
2023/12/07 06:24:26;;;;;;;3.70;3.37;;;;;;;;;;5021296;28;20313;-70
2023/12/07 06:26:55;;;;;;;4.97;4.17;;;;;;;;;;5036630;28;20199;-70
2023/12/07 06:29:29;;;;;;;4.70;4.00;;;;;;;;;;5035197;28;20592;-70
2023/12/07 06:32:05;;;;;;;5.83;4.50;;;;;;;;;;5026502;28;20206;-69
2023/12/07 06:34:33;;;;;;;6.27;4.73;;;;;;;;;;5025897;28;20622;-70
2023/12/07 06:37:02;;;;;;;5.70;4.30;;;;;;;;;;5051970;28;20582;-70
2023/12/07 06:39:29;;;;;;;4.87;4.47;;;;;;;;;;5039391;28;20222;-69
2023/12/07 06:41:56;;;;;;;7.10;5.43;;;;;;;;;;5036120;28;20293;-70
2023/12/07 06:44:24;;;;;;;12.37;7.90;;;;;;;;;;5038984;28;20206;-69
2023/12/07 06:46:51;;;;;;;16.20;9.27;;;;;;;;;;5046426;28;20198;-70
2023/12/07 06:49:19;;;;;;;19.90;11.13;;;;;;;;;;5040334;28;20217;-69
2023/12/07 06:51:46;;;;;;;71.43;33.20;;;;;;;;;;5027722;28;20202;-69
2023/12/07 06:54:13;;;;;;;12.77;8.57;;;;;;;;;;5015080;28;20202;-68
2023/12/07 06:56:41;;;;;;;10.03;6.07;;;;;;;;;;5042186;28;20646;-70
2023/12/07 06:59:08;;;;;;;9.37;6.20;;;;;;;;;;5044986;28;20221;-70
2023/12/07 07:01:37;;;;;;;11.23;7.63;;;;;;;;;;5045363;28;20728;-70
2023/12/07 07:04:04;;;;;;;16.80;9.43;;;;;;;;;;5039588;28;20637;-70
2023/12/07 07:06:32;;;;;;;22.23;11.10;;;;;;;;;;5029362;28;20229;-69
2023/12/07 07:08:59;;;;;;;8.90;6.20;;;;;;;;;;5023928;28;20570;-69
2023/12/07 07:11:28;;;;;;;8.40;5.43;;;;;;;;;;5034220;28;20792;-68
2023/12/07 07:13:56;;;;;;;7.53;5.40;;;;;;;;;;5027669;28;20273;-69
2023/12/07 07:16:23;;;;;;;10.87;7.30;;;;;;;;;;5027624;28;20754;-70
2023/12/07 07:18:51;;;;;;;10.73;7.13;;;;;;;;;;5037740;28;20626;-70
2023/12/07 07:21:19;;;;;;;9.20;6.27;;;;;;;;;;5037609;28;20241;-68
2023/12/07 07:23:47;;;;;;;11.43;7.10;;;;;;;;;;5015973;28;20563;-70
2023/12/07 07:26:17;;;;;;;17.43;11.53;;;;;;;;;;5026027;28;20253;-70
2023/12/07 07:28:44;;;;;;;20.63;15.13;;;;;;;;;;5018744;28;20222;-69
2023/12/07 07:31:12;;;;;;;26.40;17.40;;;;;;;;;;5016428;28;20203;-70
2023/12/07 07:33:40;;;;;;;27.87;19.87;;;;;;;;;;5010222;28;20270;-70
2023/12/07 07:36:07;;;;;;;21.13;14.70;;;;;;;;;;5028540;28;20211;-70
2023/12/07 07:38:35;;;;;;;13.60;9.67;;;;;;;;;;5031481;28;20499;-71
2023/12/07 07:41:02;;;;;;;19.47;10.33;;;;;;;;;;5021599;28;20545;-68
2023/12/07 07:43:30;;;;;;;19.20;10.10;;;;;;;;;;5039359;28;20206;-69
2023/12/07 07:45:57;;;;;;;18.90;9.90;;;;;;;;;;5029066;28;20252;-69
2023/12/07 07:48:25;;;;;;;19.83;10.67;;;;;;;;;;5030086;28;20237;-70
2023/12/07 07:50:53;;;;;;;16.63;10.43;;;;;;;;;;5030343;28;20210;-69
2023/12/07 07:53:20;;;;;;;17.43;10.77;;;;;;;;;;5031648;28;20214;-70
2023/12/07 07:55:48;;;;;;;20.03;12.63;;;;;;;;;;5021749;28;20206;-69
2023/12/07 07:58:15;;;;;;;21.40;14.93;;;;;;;;;;5035578;28;20629;-70
2023/12/07 08:00:42;;;;;;;22.50;14.57;;;;;;;;;;5027508;28;20202;-69
2023/12/07 08:03:10;;;;;;;18.93;13.23;;;;;;;;;;5032057;28;20202;-71
2023/12/07 08:05:37;;;;;;;16.57;10.50;;;;;;;;;;5037258;28;20752;-70
2023/12/07 08:08:04;;;;;;;16.47;11.73;;;;;;;;;;5033179;28;20223;-70
2023/12/07 08:10:32;;;;;;;23.00;14.17;;;;;;;;;;5013932;28;20207;-70
2023/12/07 08:13:19;;;;;;;25.33;15.43;;;;;;;;;;5047026;28;20222;-70
2023/12/07 08:15:48;;;;;;;20.67;12.80;;;;;;;;;;5047680;28;20206;-70
2023/12/07 08:18:17;;;;;;;21.77;14.37;;;;;;;;;;5046846;28;20775;-70
2023/12/07 08:20:44;;;;;;;23.63;13.40;;;;;;;;;;5046450;28;20228;-71
2023/12/07 08:23:12;;;;;;;24.33;16.00;;;;;;;;;;5039489;28;20202;-70
2023/12/07 08:25:40;;;;;;;28.77;18.27;;;;;;;;;;5045784;28;20701;-71
2023/12/07 08:28:09;;;;;;;28.23;19.20;;;;;;;;;;5050208;28;20233;-69
2023/12/07 08:30:37;;;;;;;32.20;19.60;;;;;;;;;;5016468;28;20225;-69
2023/12/07 08:33:04;;;;;;;32.13;21.13;;;;;;;;;;5048405;28;20198;-70
2023/12/07 08:35:32;;;;;;;38.43;21.33;;;;;;;;;;5015197;28;20210;-71
2023/12/07 08:38:00;;;;;;;24.27;16.60;;;;;;;;;;5050231;28;20627;-70
2023/12/07 08:40:27;;;;;;;18.20;12.87;;;;;;;;;;5035366;28;20209;-69
2023/12/07 08:42:55;;;;;;;14.73;10.10;;;;;;;;;;5017988;28;20210;-69
2023/12/07 08:45:23;;;;;;;10.53;8.47;;;;;;;;;;5033584;28;20230;-70
2023/12/07 08:47:52;;;;;;;13.00;8.83;;;;;;;;;;5023527;28;20305;-69
2023/12/07 08:50:21;;;;;;;13.53;10.10;;;;;;;;;;5033013;28;20202;-69
2023/12/07 08:52:49;;;;;;;7.80;6.90;;;;;;;;;;5031540;28;20210;-70
2023/12/07 08:55:28;;;;;;;7.53;6.03;;;;;;;;;;5039495;28;20209;-70
2023/12/07 08:57:56;;;;;;;10.97;7.00;;;;;;;;;;5020725;28;20206;-70
2023/12/07 09:00:25;;;;;;;8.53;5.10;;;;;;;;;;5037801;28;20216;-69
2023/12/07 09:02:52;;;;;;;5.70;4.97;;;;;;;;;;5037874;28;20650;-70
2023/12/07 09:05:20;;;;;;;5.60;5.00;;;;;;;;;;5042557;28;20633;-70
2023/12/07 09:07:47;;;;;;;8.00;6.07;;;;;;;;;;5047360;28;20207;-68
2023/12/07 09:10:14;;;;;;;8.40;6.23;;;;;;;;;;5045163;28;20200;-69
2023/12/07 09:12:42;;;;;;;7.87;5.97;;;;;;;;;;5041198;28;20224;-70
2023/12/07 09:15:09;;;;;;;6.83;5.93;;;;;;;;;;5044247;28;20203;-70
2023/12/07 09:17:39;;;;;;;8.87;7.73;;;;;;;;;;5035404;28;20281;-71
2023/12/07 09:20:11;;;;;;;13.17;7.90;;;;;;;;;;5034306;28;20202;-70
2023/12/07 09:22:44;;;;;;;12.10;8.43;;;;;;;;;;5026755;28;20198;-70
2023/12/07 09:25:12;;;;;;;13.87;10.50;;;;;;;;;;5039646;28;20210;-69
2023/12/07 09:27:41;;;;;;;19.03;12.60;;;;;;;;;;5037282;28;20206;-71
2023/12/07 09:30:10;;;;;;;13.83;10.77;;;;;;;;;;5036222;28;20378;-70
2023/12/07 09:32:42;;;;;;;11.10;8.03;;;;;;;;;;5033965;28;20221;-70
2023/12/07 09:35:18;;;;;;;12.23;8.43;;;;;;;;;;5045734;28;20199;-68
2023/12/07 09:37:46;;;;;;;10.90;7.90;;;;;;;;;;5035184;28;20198;-70
2023/12/07 09:40:18;;;;;;;10.97;8.37;;;;;;;;;;5040513;28;20571;-70
2023/12/07 09:42:46;;;;;;;15.67;8.40;;;;;;;;;;5032191;28;20288;-70
2023/12/07 09:45:16;;;;;;;12.70;8.30;;;;;;;;;;5026802;28;20685;-69
2023/12/07 09:47:44;;;;;;;14.33;9.40;;;;;;;;;;5040359;28;20293;-70
2023/12/07 09:50:13;;;;;;;9.97;7.83;;;;;;;;;;5042870;28;20195;-71
2023/12/07 09:52:41;;;;;;;7.50;6.70;;;;;;;;;;5026898;28;20198;-68
2023/12/07 09:55:22;;;;;;;9.03;7.33;;;;;;;;;;5041835;28;20665;-70
2023/12/07 09:57:50;;;;;;;9.53;6.07;;;;;;;;;;5036927;28;20208;-69
2023/12/07 10:00:18;;;;;;;7.30;5.47;;;;;;;;;;5035382;28;20217;-70
2023/12/07 10:02:46;;;;;;;4.90;4.40;;;;;;;;;;5033651;28;20640;-69
2023/12/07 10:05:16;;;;;;;5.87;4.57;;;;;;;;;;5039702;28;20243;-70
2023/12/07 10:07:46;;;;;;;5.73;4.67;;;;;;;;;;5029274;28;20213;-70
2023/12/07 10:10:15;;;;;;;6.80;4.70;;;;;;;;;;5010775;28;20582;-68
2023/12/07 10:12:48;;;;;;;5.73;5.10;;;;;;;;;;5043397;28;20641;-70
2023/12/07 10:15:16;;;;;;;8.37;5.00;;;;;;;;;;5026118;28;20203;-69
2023/12/07 10:17:48;;;;;;;5.30;4.80;;;;;;;;;;5033064;28;20198;-70
2023/12/07 10:20:16;;;;;;;6.97;5.37;;;;;;;;;;5024804;28;20662;-69
2023/12/07 10:22:44;;;;;;;5.63;4.60;;;;;;;;;;5039319;28;20244;-70
2023/12/07 10:25:11;;;;;;;6.53;5.93;;;;;;;;;;5038609;28;20210;-70
2023/12/07 10:27:40;;;;;;;6.70;6.10;;;;;;;;;;5038854;28;20300;-69
2023/12/07 10:30:12;;;;;;;10.93;5.73;;;;;;;;;;5037248;28;20369;-70
2023/12/07 10:32:44;;;;;;;5.60;5.10;;;;;;;;;;5033270;28;20667;-70
2023/12/07 10:35:20;;;;;;;6.47;5.87;;;;;;;;;;5033541;28;20213;-70
2023/12/07 10:37:49;;;;;;;8.33;6.10;;;;;;;;;;5019095;28;20214;-70
2023/12/07 10:40:20;;;;;;;8.90;7.67;;;;;;;;;;5034302;28;20257;-70
2023/12/07 10:42:48;;;;;;;8.60;7.50;;;;;;;;;;5039214;28;20210;-70
2023/12/07 10:45:16;;;;;;;10.83;7.97;;;;;;;;;;5030086;28;20203;-69
2023/12/07 10:47:44;;;;;;;13.80;11.70;;;;;;;;;;5032062;28;20299;-70
2023/12/07 10:50:14;;;;;;;6.47;5.80;;;;;;;;;;5037967;28;20198;-70
2023/12/07 10:52:46;;;;;;;5.07;4.57;;;;;;;;;;5032470;28;20198;-71
2023/12/07 10:55:25;;;;;;;6.10;4.80;;;;;;;;;;5038314;28;20198;-70
2023/12/07 10:57:54;;;;;;;5.17;4.67;;;;;;;;;;5019531;28;20217;-70
2023/12/07 11:00:27;;;;;;;6.10;4.50;;;;;;;;;;5038341;28;20685;-70
2023/12/07 11:03:11;;;;;;;5.73;5.03;;;;;;;;;;5023887;28;20207;-69
2023/12/07 11:05:40;;;;;;;6.27;5.53;;;;;;;;;;5032905;28;20207;-70
2023/12/07 11:08:11;;;;;;;13.23;6.00;;;;;;;;;;5034834;28;20722;-71
2023/12/07 11:10:39;;;;;;;7.13;6.07;;;;;;;;;;5033993;28;20633;-69
2023/12/07 11:13:11;;;;;;;7.77;5.30;;;;;;;;;;5029795;28;20202;-70
2023/12/07 11:15:39;;;;;;;7.60;5.70;;;;;;;;;;5026649;28;21843;-69
2023/12/07 11:18:07;;;;;;;6.23;5.30;;;;;;;;;;5017764;28;20230;-71
2023/12/07 11:20:44;;;;;;;4.30;3.87;;;;;;;;;;5029298;28;20385;-71
2023/12/07 11:23:11;;;;;;;3.63;3.33;;;;;;;;;;5038088;28;20783;-71
2023/12/07 11:25:39;;;;;;;3.80;3.50;;;;;;;;;;5035008;28;20619;-70
2023/12/07 11:28:09;;;;;;;11.80;8.17;;;;;;;;;;5035051;28;20644;-70
2023/12/07 11:30:37;;;;;;;9.37;7.70;;;;;;;;;;5037369;28;20210;-71
2023/12/07 11:33:05;;;;;;;8.37;7.37;;;;;;;;;;5030910;28;20750;-71
2023/12/07 11:35:32;;;;;;;6.47;5.53;;;;;;;;;;5039920;28;20218;-71
2023/12/07 11:38:04;;;;;;;7.00;6.30;;;;;;;;;;5040736;28;20203;-70
2023/12/07 11:40:34;;;;;;;6.07;5.57;;;;;;;;;;5019038;28;20215;-70
2023/12/07 11:43:05;;;;;;;4.67;4.23;;;;;;;;;;5034059;28;20919;-70
2023/12/07 11:45:39;;;;;;;4.00;3.60;;;;;;;;;;5037108;28;20233;-68
2023/12/07 11:48:13;;;;;;;4.83;3.27;;;;;;;;;;5039365;28;20284;-69
2023/12/07 11:50:58;;;;;;;7.67;5.20;;;;;;;;;;5039450;28;20614;-69
2023/12/07 11:53:26;;;;;;;8.00;6.27;;;;;;;;;;5027892;28;20211;-70
2023/12/07 11:55:54;;;;;;;6.63;4.83;;;;;;;;;;5027419;28;20202;-70
2023/12/07 11:58:22;;;;;;;3.77;3.47;;;;;;;;;;5050893;28;20223;-70
2023/12/07 12:00:52;;;;;;;6.57;4.70;;;;;;;;;;5047669;28;20217;-70
2023/12/07 12:03:20;;;;;;;10.23;7.13;;;;;;;;;;5041370;28;20210;-71
2023/12/07 12:05:47;;;;;;;9.23;6.07;;;;;;;;;;5028840;28;20210;-70
2023/12/07 12:08:17;;;;;;;4.90;4.40;;;;;;;;;;5033676;28;20230;-70
2023/12/07 12:10:44;;;;;;;4.93;4.43;;;;;;;;;;5033197;28;20823;-70
2023/12/07 12:13:12;;;;;;;7.03;5.37;;;;;;;;;;5038346;28;20226;-70
2023/12/07 12:15:40;;;;;;;10.10;6.13;;;;;;;;;;5042030;28;20636;-70
2023/12/07 12:18:07;;;;;;;7.40;5.83;;;;;;;;;;5031948;28;20218;-70
2023/12/07 12:20:35;;;;;;;6.17;4.73;;;;;;;;;;5033214;28;20667;-70
2023/12/07 12:23:02;;;;;;;14.83;7.80;;;;;;;;;;5037387;28;20671;-71
2023/12/07 12:25:39;;;;;;;4.80;4.30;;;;;;;;;;5039011;28;20218;-70
2023/12/07 12:28:07;;;;;;;5.27;4.77;;;;;;;;;;5024237;28;20250;-69
2023/12/07 12:30:35;;;;;;;8.37;4.80;;;;;;;;;;5025192;28;20198;-70
2023/12/07 12:33:02;;;;;;;5.10;4.00;;;;;;;;;;5022751;28;20214;-71
2023/12/07 12:35:30;;;;;;;5.83;4.53;;;;;;;;;;5043319;28;20213;-70
2023/12/07 12:37:57;;;;;;;3.37;3.07;;;;;;;;;;5025014;28;20214;-71
2023/12/07 12:40:28;;;;;;;4.13;3.27;;;;;;;;;;5036198;28;20301;-71
2023/12/07 12:42:56;;;;;;;4.30;3.90;;;;;;;;;;5033810;28;20202;-70
2023/12/07 12:45:24;;;;;;;5.27;4.57;;;;;;;;;;5036262;28;20250;-71
2023/12/07 12:47:51;;;;;;;5.40;4.63;;;;;;;;;;5043297;28;20230;-70
2023/12/07 12:50:35;;;;;;;5.50;3.80;;;;;;;;;;5048889;28;20209;-70
2023/12/07 12:53:03;;;;;;;4.47;3.87;;;;;;;;;;5023298;28;20234;-70
2023/12/07 12:55:32;;;;;;;5.17;4.27;;;;;;;;;;5018968;28;20575;-70
2023/12/07 12:58:00;;;;;;;5.57;3.40;;;;;;;;;;5052374;28;20650;-71
2023/12/07 13:00:27;;;;;;;3.00;2.70;;;;;;;;;;5031737;28;20203;-70
2023/12/07 13:02:55;;;;;;;3.63;3.23;;;;;;;;;;5029285;28;20554;-69
2023/12/07 13:05:23;;;;;;;4.73;3.87;;;;;;;;;;5040773;28;20210;-69
2023/12/07 13:07:50;;;;;;;3.53;2.70;;;;;;;;;;5021456;28;20717;-70
2023/12/07 13:10:38;;;;;;;4.00;3.60;;;;;;;;;;5018420;28;20329;-70
2023/12/07 13:13:07;;;;;;;3.07;2.80;;;;;;;;;;5027826;28;20198;-70
2023/12/07 13:15:34;;;;;;;3.60;3.30;;;;;;;;;;5038603;28;20285;-70
2023/12/07 13:18:04;;;;;;;3.30;3.00;;;;;;;;;;5025715;28;20230;-70
2023/12/07 13:20:38;;;;;;;3.40;2.97;;;;;;;;;;5042768;28;20203;-70
2023/12/07 13:23:20;;;;;;;6.53;4.03;;;;;;;;;;5039708;28;20305;-70
2023/12/07 13:25:48;;;;;;;4.77;3.77;;;;;;;;;;5026993;28;20264;-70
2023/12/07 13:28:16;;;;;;;5.73;4.53;;;;;;;;;;5040040;28;20235;-70
2023/12/07 13:30:43;;;;;;;4.60;4.20;;;;;;;;;;5024459;28;20217;-72
2023/12/07 13:33:11;;;;;;;3.53;3.23;;;;;;;;;;5033905;28;20215;-71
2023/12/07 13:35:54;;;;;;;4.40;3.97;;;;;;;;;;5041263;28;20206;-70
2023/12/07 13:38:23;;;;;;;6.80;5.23;;;;;;;;;;5031928;28;20562;-71
2023/12/07 13:40:51;;;;;;;6.00;4.57;;;;;;;;;;5038047;28;20222;-71
2023/12/07 13:43:18;;;;;;;6.90;5.10;;;;;;;;;;5038634;28;21789;-71
2023/12/07 13:45:46;;;;;;;8.97;6.13;;;;;;;;;;5036345;28;20206;-70
2023/12/07 13:48:14;;;;;;;9.80;6.90;;;;;;;;;;5038062;28;20221;-71
2023/12/07 13:50:42;;;;;;;12.80;7.73;;;;;;;;;;5034778;28;20202;-71
2023/12/07 13:53:10;;;;;;;12.17;6.30;;;;;;;;;;5039454;28;20649;-71
2023/12/07 13:55:41;;;;;;;7.30;4.53;;;;;;;;;;5045210;28;20203;-71
2023/12/07 13:58:12;;;;;;;8.07;6.03;;;;;;;;;;5028749;28;20227;-71
2023/12/07 14:00:45;;;;;;;5.23;4.73;;;;;;;;;;5047773;28;20661;-71
2023/12/07 14:03:12;;;;;;;8.30;6.90;;;;;;;;;;5044741;28;20202;-71
2023/12/07 14:05:40;;;;;;;7.60;5.77;;;;;;;;;;5042109;28;20206;-71
2023/12/07 14:08:08;;;;;;;8.30;6.00;;;;;;;;;;5039539;28;20658;-71
2023/12/07 14:10:35;;;;;;;6.07;5.00;;;;;;;;;;5038000;28;20633;-70
2023/12/07 14:13:03;;;;;;;4.93;4.30;;;;;;;;;;5035543;28;20575;-71
2023/12/07 14:15:32;;;;;;;4.93;4.20;;;;;;;;;;5041699;28;20657;-70
2023/12/07 14:18:11;;;;;;;5.30;4.80;;;;;;;;;;5039824;28;20285;-71
2023/12/07 14:20:41;;;;;;;8.33;5.80;;;;;;;;;;5034669;28;20583;-71
2023/12/07 14:23:29;;;;;;;12.83;8.10;;;;;;;;;;5038929;28;20294;-71
2023/12/07 14:25:59;;;;;;;12.13;8.17;;;;;;;;;;5031982;28;20647;-71
2023/12/07 14:28:30;;;;;;;12.70;8.83;;;;;;;;;;5037400;28;20234;-71
2023/12/07 14:30:59;;;;;;;10.30;6.93;;;;;;;;;;5037315;28;20203;-72
2023/12/07 14:33:26;;;;;;;13.57;8.20;;;;;;;;;;5017539;28;20625;-71
2023/12/07 14:35:54;;;;;;;9.03;6.27;;;;;;;;;;5017416;28;20211;-70
2023/12/07 14:38:23;;;;;;;12.73;8.17;;;;;;;;;;5032489;28;20230;-71
2023/12/07 14:40:54;;;;;;;11.17;7.63;;;;;;;;;;5037943;28;20202;-71
2023/12/07 14:43:22;;;;;;;8.13;6.57;;;;;;;;;;5022745;28;20217;-70